Time;durP1;ratioP1;P1;durP2;ratioP2;P2;SDS_P1;SDS_P2;PMS_P1;PMS_P2;Temp;Humidity;BMP_temperature;BMP_pressure;BME280_temperature;BME280_humidity;BME280_pressure;Samples;Min_cycle;Max_cycle;Signal;HPM_P1;HPM_P2
2022/12/14 06:46:14;;;;;;;;;;;;;;;;;;6080173;23;19971;-79
2022/12/14 06:48:40;;;;;;;;;;;;;;;;;;6099462;23;19924;-78
2022/12/14 06:51:05;;;;;;;;;;;;;;;;;;6099152;23;20247;-78
2022/12/14 06:53:31;;;;;;;;;;;;;;;;;;6099319;23;19913;-79
2022/12/14 06:56:07;;;;;;;;;;;;;;;;;;6099601;23;19917;-78
2022/12/14 06:58:33;;;;;;;;;;;;;;;;;;6099850;23;19917;-78
2022/12/14 07:01:06;;;;;;;;;;;;;;;;;;6099800;23;19913;-78
2022/12/14 07:03:31;;;;;;;;;;;;;;;;;;6099644;23;19909;-78
2022/12/14 10:39:19;;;;;;;;;;;;;;;;;;6090032;23;19933;-77
2022/12/14 10:41:45;;;;;;;;;;;;;;;;;;6072122;23;19925;-77
2022/12/14 10:44:19;;;;;;;;;;;;;;;;;;6072266;23;19917;-77
2022/12/14 10:46:47;;;;;;;;;;;;;;;;;;6097952;23;19920;-80
2022/12/14 10:49:15;;;;;;;;;;;;;;;;;;6072233;23;20317;-80
2022/12/14 10:51:42;;;;;;;;;;;;;;;;;;6099079;23;20244;-80
2022/12/14 10:54:26;;;;;;;;;;;;;;;;;;6099964;23;19913;-79
2022/12/14 10:56:51;;;;;;;;;;;;;;;;;;6099787;23;19913;-80
2022/12/14 10:59:17;;;;;;;;;;;;;;;;;;6099676;23;19964;-80
2022/12/14 11:01:44;;;;;;;;;;;;;;;;;;6100037;23;20249;-79
2022/12/14 11:04:28;;;;;;;;;;;;;;;;;;6099655;23;19936;-81
2022/12/14 11:06:54;;;;;;;;;;;;;;;;;;6073789;23;19913;-82
2022/12/14 11:09:20;;;;;;;;;;;;;;;;;;6099553;23;19921;-82
2022/12/14 11:11:45;;;;;;;;;;;;;;;;;;6098925;23;19963;-79
2022/12/14 11:14:14;;;;;;;;;;;;;;;;;;6098998;23;19913;-79
2022/12/14 11:16:40;;;;;;;;;;;;;;;;;;6099252;23;19945;-84
2022/12/14 11:19:19;;;;;;;;;;;;;;;;;;6099820;23;20404;-84
2022/12/14 11:21:45;;;;;;;;;;;;;;;;;;6099463;23;19942;-83
2022/12/14 11:24:24;;;;;;;;;;;;;;;;;;6099247;23;19914;-83
2022/12/14 11:26:52;;;;;;;;;;;;;;;;;;6099225;23;19913;-83
2022/12/14 11:29:20;;;;;;;;;;;;;;;;;;6099375;23;19913;-85
2022/12/14 11:31:48;;;;;;;;;;;;;;;;;;6073729;23;20384;-82
2022/12/14 11:34:28;;;;;;;;;;;;;;;;;;6073470;23;20237;-82
2022/12/14 11:36:53;;;;;;;;;;;;;;;;;;6099532;23;19921;-83
2022/12/14 11:39:23;;;;;;;;;;;;;;;;;;6099099;23;19913;-82
2022/12/14 11:41:59;;;;;;;;;;;;;;;;;;6099304;23;19928;-82
2022/12/14 11:44:26;;;;;;;;;;;;;;;;;;6099134;23;19921;-84
2022/12/14 11:47:00;;;;;;;;;;;;;;;;;;6099186;23;20321;-80
2022/12/14 11:49:32;;;;;;;;;;;;;;;;;;6099230;23;19917;-83
2022/12/14 11:51:59;;;;;;;;;;;;;;;;;;6098918;23;20388;-82
2022/12/14 11:54:24;;;;;;;;;;;;;;;;;;6100817;23;20044;-82
2022/12/14 11:56:50;;;;;;;;;;;;;;;;;;6100809;23;19917;-82
2022/12/14 11:59:17;;;;;;;;;;;;;;;;;;6102839;23;19921;-82
2022/12/14 12:01:42;;;;;;;;;;;;;;;;;;6099810;23;19920;-81
2022/12/14 12:04:13;;;;;;;;;;;;;;;;;;6100885;23;19913;-82
2022/12/14 12:06:39;;;;;;;;;;;;;;;;;;6074598;23;19913;-82
2022/12/14 12:09:10;;;;;;;;;;;;;;;;;;6073944;23;19914;-82
2022/12/14 12:11:36;;;;;;;;;;;;;;;;;;6099221;23;19913;-82
2022/12/14 12:14:21;;;;;;;;;;;;;;;;;;6099100;23;20262;-82
2022/12/14 12:16:46;;;;;;;;;;;;;;;;;;6073203;23;19920;-82
2022/12/14 12:19:14;;;;;;;;;;;;;;;;;;6099098;23;20276;-82
2022/12/14 12:21:41;;;;;;;;;;;;;;;;;;6099190;23;19913;-82
2022/12/14 12:24:21;;;;;;;;;;;;;;;;;;6099014;23;19913;-81
2022/12/14 12:26:56;;;;;;;;;;;;;;;;;;6098888;23;19960;-82
2022/12/14 12:29:28;;;;;;;;;;;;;;;;;;6073148;23;19916;-82
2022/12/14 12:31:59;;;;;;;;;;;;;;;;;;6098727;23;19920;-82
2022/12/14 12:34:53;;;;;;;;;;;;;;;;;;6098638;23;20376;-82
2022/12/14 12:37:28;;;;;;;;;;;;;;;;;;5971663;23;19926;-82
2022/12/14 12:40:02;;;;;;;;;;;;;;;;;;6098733;23;19917;-82
2022/12/14 12:42:33;;;;;;;;;;;;;;;;;;6098897;23;19913;-83
2022/12/14 12:45:17;;;;;;;;;;;;;;;;;;6098626;23;20333;-83
2022/12/14 12:47:48;;;;;;;;;;;;;;;;;;6098499;23;19968;-83
2022/12/14 18:52:08;;;;;;;;;;;;;;;;;;6080204;23;20329;-79
2022/12/14 18:54:33;;;;;;;;;;;;;;;;;;6097088;23;20273;-77
2022/12/14 18:56:59;;;;;;;;;;;;;;;;;;6097925;23;19951;-79
2022/12/14 18:59:24;;;;;;;;;;;;;;;;;;6098137;23;19988;-79
2022/12/14 19:01:49;;;;;;;;;;;;;;;;;;6097796;23;19944;-79
2022/12/14 19:04:15;;;;;;;;;;;;;;;;;;6097916;23;19913;-78
2022/12/14 19:06:40;;;;;;;;;;;;;;;;;;6098621;23;19968;-82
2022/12/14 19:09:05;;;;;;;;;;;;;;;;;;6098160;23;20248;-81
2022/12/14 19:11:33;;;;;;;;;;;;;;;;;;6098272;23;20241;-81
2022/12/14 19:13:58;;;;;;;;;;;;;;;;;;6099558;23;19969;-81
2022/12/14 19:16:24;;;;;;;;;;;;;;;;;;6099497;23;19917;-79
2022/12/14 19:18:50;;;;;;;;;;;;;;;;;;6099497;23;19913;-81
2022/12/14 19:21:15;;;;;;;;;;;;;;;;;;6099243;23;19920;-82
2022/12/14 19:23:41;;;;;;;;;;;;;;;;;;6099411;23;19913;-81
2022/12/14 19:26:06;;;;;;;;;;;;;;;;;;6099880;23;19913;-82
2022/12/14 19:28:31;;;;;;;;;;;;;;;;;;6099424;23;19913;-80
2022/12/14 19:30:57;;;;;;;;;;;;;;;;;;6099290;23;19913;-83
2022/12/14 19:33:24;;;;;;;;;;;;;;;;;;6099241;23;19913;-84
2022/12/14 22:00:33;;;;;;;;;;;;;;;;;;6089868;23;19976;-79
2022/12/14 22:02:58;;;;;;;;;;;;;;;;;;6072845;23;19921;-80
2022/12/14 22:05:24;;;;;;;;;;;;;;;;;;6073349;23;19936;-81
2022/12/14 22:07:50;;;;;;;;;;;;;;;;;;6098875;23;19913;-80
2022/12/14 22:10:16;;;;;;;;;;;;;;;;;;6098257;23;19924;-78
2022/12/14 22:12:41;;;;;;;;;;;;;;;;;;6098353;23;19918;-82
2022/12/14 22:15:07;;;;;;;;;;;;;;;;;;6072924;23;19913;-80
2022/12/14 22:17:32;;;;;;;;;;;;;;;;;;6098448;23;19913;-80
2022/12/14 22:19:58;;;;;;;;;;;;;;;;;;6098907;23;19914;-79
2022/12/14 22:22:23;;;;;;;;;;;;;;;;;;6098671;23;19920;-82
2022/12/14 22:24:49;;;;;;;;;;;;;;;;;;6073659;23;19914;-80
2022/12/14 22:27:15;;;;;;;;;;;;;;;;;;6072475;23;19965;-82
2022/12/14 22:29:41;;;;;;;;;;;;;;;;;;6098922;23;19913;-82
2022/12/14 22:32:06;;;;;;;;;;;;;;;;;;6099023;23;19913;-82
2022/12/14 22:34:31;;;;;;;;;;;;;;;;;;6073183;23;19924;-80
2022/12/14 22:36:57;;;;;;;;;;;;;;;;;;6099193;23;19914;-80
2022/12/14 22:39:22;;;;;;;;;;;;;;;;;;6099509;23;19914;-82
2022/12/14 22:41:48;;;;;;;;;;;;;;;;;;6098902;23;20329;-81
2022/12/14 22:44:13;;;;;;;;;;;;;;;;;;6097825;23;19920;-81
2022/12/14 22:46:38;;;;;;;;;;;;;;;;;;6098686;23;19920;-82
2022/12/14 22:49:04;;;;;;;;;;;;;;;;;;6099698;23;19988;-81
2022/12/14 22:51:29;;;;;;;;;;;;;;;;;;6075317;23;19916;-80
2022/12/14 22:53:55;;;;;;;;;;;;;;;;;;6099766;23;19946;-82
2022/12/14 22:56:26;;;;;;;;;;;;;;;;;;6099891;23;20273;-82
